• Join FlightAware (Why Join?)
  • Login
  • US Flag 
11:17AM EST


 

Airport Tracker/Info


-or-


 

Live Flight TrackerFlight Track Log ✈ SWA482 ✈ 09-May-2013 ✈ KABQ - KDAL

Flight Track Log - Related Links

Times and Time Zones

All times are in EDT time to prevent confusion due to time zone crossing. See the SWA482 flight status page for this flight to view local times or setup timezone preferences in your user account.

Time Position Orientation Groundspeed Altitude Reporting Facility
EDT Latitude Longitude Course Direction KTS MPH feet Rate Location/Type
11:06PM 35.0008 -106.5306 139° Southeast 230 265 7,900  Level Albuquerque Center
11:06PM 34.9906 -106.5189 137° Southeast 226 260 8,500 3,360 Climbing Albuquerque Center
11:07PM 34.9206 -106.5125 176° South 252 290 12,600 2,880 Climbing Albuquerque Center
11:08PM 34.8808 -106.4097 115° Southeast 309 356 14,500 2,400 Climbing Albuquerque Center
11:09PM 34.8697 -106.2886 96° East 351 404 17,600 2,880 Climbing Albuquerque Center
11:10PM 34.8581 -106.1608 96° East 374 430 20,500 2,520 Climbing Albuquerque Center
11:11PM 34.8447 -106.0258 97° East 395 455 22,800 2,220 Climbing Albuquerque Center
11:12PM 34.8300 -105.8731 97° East 420 483 25,100 2,100 Climbing Albuquerque Center
11:13PM 34.8158 -105.7231 97° East 437 503 27,200 1,920 Climbing Albuquerque Center
11:14PM 34.8000 -105.5697 97° East 449 517 29,100 1,740 Climbing Albuquerque Center
11:15PM 34.7844 -105.4094 97° East 468 539 30,800 1,740 Climbing Albuquerque Center
11:16PM 34.7667 -105.2497 98° East 473 544 32,700 1,920 Climbing Albuquerque Center
11:17PM 34.7519 -105.0903 96° East 474 545 34,800 1,680 Climbing Albuquerque Center
11:18PM 34.7319 -104.9050 97° East 471 542 36,200 1,260 Climbing Albuquerque Center
11:19PM 34.7136 -104.7436 98° East 478 550 37,400 1,320 Climbing Albuquerque Center
11:20PM 34.6972 -104.5842 97° East 477 549 39,000 720 Climbing Albuquerque Center
11:21PM 34.6806 -104.4283 97° East 469 540 39,000  Level Albuquerque Center
11:22PM 34.6633 -104.2697 97° East 472 543 39,000  Level Albuquerque Center
11:23PM 34.6453 -104.1108 98° East 473 544 39,000  Level Albuquerque Center
11:24PM 34.6281 -103.9536 98° East 470 541 39,000  Level Albuquerque Center
11:26PM 34.6086 -103.7953 98° East 472 543 39,000  Level Albuquerque Center
11:27PM 34.5881 -103.6119 98° East 470 541 39,000  Level Albuquerque Center
11:28PM 34.5706 -103.4564 98° East 465 535 39,000  Level Albuquerque Center
11:29PM 34.5517 -103.2986 98° East 468 539 39,000  Level Albuquerque Center
11:30PM 34.5325 -103.1406 98° East 470 541 39,000  Level Albuquerque Center
11:31PM 34.5128 -102.9825 99° East 471 542 39,000  Level Albuquerque Center
11:32PM 34.4931 -102.8242 99° East 471 542 39,000  Level Albuquerque Center
11:33PM 34.4767 -102.6722 97° East 475 547 39,000  Level Albuquerque Center
11:34PM 34.4586 -102.4819 97° East 476 548 39,000  Level Albuquerque Center
11:35PM 34.4419 -102.3233 97° East 477 549 39,000  Level Albuquerque Center
11:36PM 34.4244 -102.1667 98° East 476 548 39,000  Level Albuquerque Center
11:37PM 34.4081 -102.0108 97° East 473 544 39,000  Level Albuquerque Center
11:38PM 34.3908 -101.8525 97° East 475 547 39,000  Level Albuquerque Center
11:39PM 34.3736 -101.6967 98° East 473 544 39,000  Level Albuquerque Center
11:40PM 34.3578 -101.5392 97° East 472 543 39,000  Level Fort Worth Center
11:41PM 34.3414 -101.4025 98° East 467 537 39,000  Level Fort Worth Center
11:42PM 34.3197 -101.2256 98° East 467 537 39,000  Level Fort Worth Center
11:43PM 34.3008 -101.0839 99° East 472 543 39,000  Level Fort Worth Center
11:44PM 34.2642 -100.9139 105° East 472 543 39,000  Level Fort Worth Center
11:45PM 34.2286 -100.7592 105° East 472 543 39,000  Level Fort Worth Center
11:46PM 34.1972 -100.6050 104° East 478 550 39,000  Level Fort Worth Center
11:47PM 34.1614 -100.4506 106° East 478 550 39,000  Level Fort Worth Center
11:48PM 34.1275 -100.2936 105° East 478 550 39,000  Level Fort Worth Center
11:49PM 34.0914 -100.1422 106° East 478 550 39,000  Level Fort Worth Center
11:50PM 34.0550 -99.9881 106° East 478 550 39,000  Level Fort Worth Center
11:51PM 34.0206 -99.8267 104° East 478 550 39,000  Level Fort Worth Center
11:52PM 33.9861 -99.6703 105° East 483 556 39,000  Level Fort Worth Center
11:53PM 33.9469 -99.5167 107° East 478 550 39,000  Level Fort Worth Center
11:54PM 33.9119 -99.3581 105° East 478 550 39,000  Level Fort Worth Center
11:55PM 33.8767 -99.2072 106° East 478 550 39,000 -540 Level Fort Worth Center
11:56PM 33.8392 -99.0514 106° East 478 550 38,000 -1,920 Descending Fort Worth Center
11:57PM 33.8014 -98.9008 107° East 472 543 35,200 -2,880 Descending Fort Worth Center
11:58PM 33.7633 -98.7478 107° East 472 543 32,200 -2,760 Descending Fort Worth Center
11:59PM 33.7275 -98.5947 106° East 479 551 29,700 -2,400 Descending Fort Worth Center
12:00AM 33.6972 -98.4619 105° East 472 543 27,400 -2,280 Descending Fort Worth Center
12:01AM 33.6608 -98.3144 106° East 458 527 25,200 -2,400 Descending Fort Worth Center
12:02AM 33.6242 -98.1619 106° East 444 511 22,600 -2,400 Descending Fort Worth Center
12:03AM 33.5917 -98.0269 106° East 433 498 20,500 -2,100 Descending Fort Worth Center
12:04AM 33.5589 -97.9069 108° East 419 482 18,500 -2,100 Descending Fort Worth Center
12:05AM 33.5008 -97.7772 118° Southeast 407 468 16,300 -1,860 Descending Fort Worth Center
12:06AM 33.4383 -97.6947 132° Southeast 383 441 14,800 -1,740 Descending Fort Worth Center
12:07AM 33.3697 -97.6050 132° Southeast 365 420 12,900 -1,980 Descending Fort Worth Center
12:08AM 33.2989 -97.5103 132° Southeast 358 412 10,900 -1,440 Descending Fort Worth Center
12:09AM 33.2406 -97.4408 135° Southeast 339 390 10,100 -960 Descending Fort Worth Center
12:10AM 33.1758 -97.3589 133° Southeast 312 359 9,000 -1,200 Descending Fort Worth Center
12:11AM 33.1256 -97.2969 134° Southeast 297 342 7,700 -1,380 Descending Fort Worth Center
12:12AM 33.0608 -97.2225 136° Southeast 297 342 6,300 -1,200 Descending Fort Worth Center
12:13AM 33.0128 -97.1656 135° Southeast 286 329 5,300 -900 Descending Fort Worth Center
12:14AM 32.9667 -97.0833 124° Southeast 254 292 4,700 -720 Descending Dallas / Fort Worth TRACON
12:15AM 32.9500 -97.0167 107° East 219 252 4,000 -840 Descending Dallas / Fort Worth TRACON
12:16AM 32.9333 -96.9667 112° Southeast 196 226 3,100 -1,140 Descending Dallas / Fort Worth TRACON
12:17AM 32.9000 -96.9000 121° Southeast 167 192 1,700 -1,080 Descending Dallas / Fort Worth TRACON
12:18AM 32.8667 -96.8667 140° Southeast 137 158 900 -840 Descending Dallas / Fort Worth TRACON
12:20AM 32.8471 -96.8518 140° Southeast  Level Estimated